Time;durP1;ratioP1;P1;durP2;ratioP2;P2;SDS_P1;SDS_P2;PMS_P1;PMS_P2;Temp;Humidity;BMP_temperature;BMP_pressure;BME280_temperature;BME280_humidity;BME280_pressure;Samples;Min_cycle;Max_cycle;Signal;HPM_P1;HPM_P2
2022/10/05 00:02:22;;;;;;;16.52;9.35;;;12.00;99.90;;;;;;5016549;28;20236;-77
2022/10/05 00:05:21;;;;;;;14.05;9.10;;;12.00;99.90;;;;;;5015996;28;20316;-77
2022/10/05 00:08:14;;;;;;;14.93;9.40;;;12.00;99.90;;;;;;5007952;28;20245;-77
2022/10/05 00:11:07;;;;;;;15.82;8.90;;;12.10;99.90;;;;;;5008903;28;20329;-76
2022/10/05 00:13:55;;;;;;;15.73;8.80;;;12.10;99.90;;;;;;5016202;28;20299;-77
2022/10/05 00:16:45;;;;;;;15.10;8.30;;;12.00;99.90;;;;;;5015972;28;20226;-77
2022/10/05 00:19:36;;;;;;;16.70;8.35;;;11.90;99.90;;;;;;5013733;28;20242;-77
2022/10/05 00:22:31;;;;;;;20.42;9.18;;;11.90;99.90;;;;;;5010515;28;20226;-81
2022/10/05 00:25:22;;;;;;;12.15;8.15;;;11.90;99.90;;;;;;5011901;28;20218;-77
2022/10/05 00:28:21;;;;;;;14.38;8.68;;;12.00;99.90;;;;;;5012374;28;20218;-77
2022/10/05 00:31:16;;;;;;;18.08;8.63;;;11.90;99.90;;;;;;5000985;28;20214;-77
2022/10/05 00:34:05;;;;;;;19.95;8.60;;;11.90;99.90;;;;;;5016582;28;20364;-77
2022/10/05 00:36:54;;;;;;;13.98;8.35;;;11.90;99.90;;;;;;5029906;28;20213;-77
2022/10/05 00:39:43;;;;;;;14.07;8.00;;;11.90;99.90;;;;;;5015378;28;20225;-77
2022/10/05 00:42:51;;;;;;;15.02;8.30;;;11.90;99.90;;;;;;5026852;28;20226;-77
2022/10/05 00:45:45;;;;;;;16.98;8.82;;;11.80;99.90;;;;;;5003505;28;20268;-77
2022/10/05 00:48:43;;;;;;;16.65;8.65;;;11.90;99.90;;;;;;5017560;28;20224;-77
2022/10/05 00:51:35;;;;;;;16.83;8.75;;;12.00;99.90;;;;;;5015654;28;20225;-77
2022/10/05 00:54:33;;;;;;;15.00;8.57;;;11.90;99.90;;;;;;5014845;28;20225;-77
2022/10/05 00:57:32;;;;;;;15.93;7.88;;;12.00;99.90;;;;;;5000595;28;20452;-77
2022/10/05 01:00:24;;;;;;;15.27;8.05;;;12.00;99.90;;;;;;5016957;28;20691;-77
2022/10/05 01:03:21;;;;;;;16.10;8.75;;;12.00;99.90;;;;;;5007680;28;20237;-77
2022/10/05 01:06:22;;;;;;;14.90;7.78;;;12.10;99.90;;;;;;4997516;28;20221;-77
2022/10/05 01:09:21;;;;;;;18.17;8.07;;;12.00;99.90;;;;;;4998507;28;20265;-76
2022/10/05 01:12:19;;;;;;;13.02;7.45;;;12.10;99.90;;;;;;5016000;28;20221;-77
2022/10/05 01:15:12;;;;;;;11.90;7.53;;;12.00;99.90;;;;;;5019829;28;20253;-76
2022/10/05 01:18:07;;;;;;;12.20;8.05;;;11.90;99.90;;;;;;4997826;28;20225;-77
2022/10/05 01:21:03;;;;;;;16.38;8.07;;;12.00;99.90;;;;;;5015850;28;20226;-77
2022/10/05 01:24:20;;;;;;;12.70;7.38;;;12.00;99.90;;;;;;5008377;28;20225;-77
2022/10/05 01:27:21;;;;;;;13.45;7.50;;;12.10;99.90;;;;;;5023564;28;20609;-77
2022/10/05 01:30:15;;;;;;;15.68;7.30;;;12.10;99.90;;;;;;5026949;28;20716;-76
2022/10/05 01:33:13;;;;;;;15.23;7.70;;;12.10;99.90;;;;;;5013721;28;20598;-77
2022/10/05 01:36:09;;;;;;;15.25;7.40;;;12.10;99.90;;;;;;5014360;28;20245;-76
2022/10/05 01:39:06;;;;;;;16.13;7.80;;;12.10;99.90;;;;;;5001416;28;20221;-77
2022/10/05 01:42:03;;;;;;;13.98;7.32;;;12.20;99.90;;;;;;5015255;28;20244;-76
2022/10/05 01:44:58;;;;;;;14.02;7.40;;;12.20;99.90;;;;;;5011330;28;20665;-77
2022/10/05 01:47:51;;;;;;;13.80;7.03;;;12.10;99.90;;;;;;5013451;28;20916;-77
2022/10/05 01:50:51;;;;;;;14.57;6.70;;;12.00;99.90;;;;;;5013345;28;20288;-77
2022/10/05 01:53:51;;;;;;;15.07;7.50;;;11.90;99.90;;;;;;5012579;28;20240;-77
2022/10/05 01:56:50;;;;;;;14.00;7.30;;;12.00;99.90;;;;;;5004964;28;20226;-77
2022/10/05 01:59:51;;;;;;;15.50;7.45;;;12.00;99.90;;;;;;5017612;28;20229;-77
2022/10/05 02:02:46;;;;;;;11.57;7.25;;;12.10;99.90;;;;;;5001138;28;20225;-77
2022/10/05 02:05:43;;;;;;;12.13;6.82;;;12.10;99.90;;;;;;4995132;28;20280;-77
2022/10/05 02:08:38;;;;;;;13.63;6.72;;;12.10;99.90;;;;;;4996800;28;20220;-77
2022/10/05 02:11:28;;;;;;;16.05;7.07;;;12.00;99.90;;;;;;4998341;28;20230;-77
2022/10/05 02:14:22;;;;;;;10.43;6.75;;;12.00;99.90;;;;;;4998945;28;20593;-77
2022/10/05 02:17:17;;;;;;;15.82;7.45;;;12.00;99.90;;;;;;4982738;28;20226;-77
2022/10/05 02:20:10;;;;;;;13.30;7.35;;;11.90;99.90;;;;;;4993418;28;20222;-77
2022/10/05 02:23:04;;;;;;;14.25;7.72;;;11.90;99.90;;;;;;4995466;28;20233;-77
2022/10/05 02:25:56;;;;;;;12.70;7.50;;;11.80;99.90;;;;;;5000926;28;20268;-77
2022/10/05 02:28:50;;;;;;;12.43;7.35;;;11.80;99.90;;;;;;5012180;28;21470;-77
2022/10/05 02:31:44;;;;;;;13.10;7.43;;;11.70;99.90;;;;;;5010082;28;20219;-77
2022/10/05 02:34:38;;;;;;;18.23;8.27;;;11.70;99.90;;;;;;5005134;28;20229;-77
2022/10/05 02:37:44;;;;;;;19.52;8.30;;;11.70;99.90;;;;;;5003509;28;20592;-77
2022/10/05 02:40:44;;;;;;;14.57;8.30;;;11.70;99.90;;;;;;5028228;28;20226;-76
2022/10/05 02:43:45;;;;;;;16.40;8.02;;;11.70;99.90;;;;;;4994682;28;20228;-77
2022/10/05 02:46:40;;;;;;;16.77;8.20;;;11.70;99.90;;;;;;4999976;28;20237;-77
2022/10/05 02:49:40;;;;;;;15.65;8.82;;;11.70;99.90;;;;;;5000421;28;20306;-77
2022/10/05 02:52:36;;;;;;;15.80;8.65;;;11.70;99.90;;;;;;4998656;28;20887;-77
2022/10/05 02:55:33;;;;;;;15.00;8.30;;;11.60;99.90;;;;;;4997564;28;20233;-77
2022/10/05 02:58:27;;;;;;;15.98;8.75;;;11.60;99.90;;;;;;5002373;28;20230;-77
2022/10/05 03:01:24;;;;;;;13.10;8.40;;;11.60;99.90;;;;;;4999725;28;20326;-77
2022/10/05 03:04:25;;;;;;;15.88;8.35;;;11.60;99.90;;;;;;5018275;28;20748;-77
2022/10/05 03:07:18;;;;;;;15.68;8.95;;;11.70;99.90;;;;;;5022714;28;20236;-77
2022/10/05 03:10:13;;;;;;;16.02;8.65;;;11.60;99.90;;;;;;5004740;28;20309;-77
2022/10/05 03:13:08;;;;;;;14.25;8.65;;;11.70;99.90;;;;;;5001445;28;20578;-77
2022/10/05 03:16:12;;;;;;;12.75;8.80;;;11.60;99.90;;;;;;5014747;28;20709;-77
2022/10/05 03:19:12;;;;;;;18.48;9.13;;;11.70;99.90;;;;;;5021444;28;20570;-77
2022/10/05 03:22:19;;;;;;;14.90;8.48;;;11.80;99.90;;;;;;5038681;28;20720;-77
2022/10/05 03:25:34;;;;;;;16.20;8.52;;;11.80;99.90;;;;;;5018166;28;20221;-77
2022/10/05 03:28:31;;;;;;;19.52;8.48;;;11.70;99.90;;;;;;5012000;28;20301;-77
2022/10/05 03:31:28;;;;;;;15.38;8.93;;;11.70;99.90;;;;;;5017134;28;20310;-77
2022/10/05 03:34:23;;;;;;;14.90;8.75;;;11.80;99.90;;;;;;5014239;28;20754;-77
2022/10/05 03:37:20;;;;;;;17.27;8.90;;;11.80;99.90;;;;;;5005553;28;20240;-77
2022/10/05 03:40:22;;;;;;;18.83;9.20;;;11.70;99.90;;;;;;5032864;28;20782;-77
2022/10/05 03:43:32;;;;;;;16.33;8.85;;;11.60;99.90;;;;;;5012950;28;20290;-77
2022/10/05 03:46:36;;;;;;;17.40;9.00;;;11.70;99.90;;;;;;4997266;28;20229;-77
2022/10/05 03:49:40;;;;;;;12.93;8.40;;;11.60;99.90;;;;;;5008339;28;20255;-77
2022/10/05 03:52:36;;;;;;;17.73;8.95;;;11.50;99.90;;;;;;5012738;28;20236;-76
2022/10/05 03:55:31;;;;;;;17.17;9.02;;;11.50;99.90;;;;;;5007960;28;20349;-76
2022/10/05 03:58:25;;;;;;;15.25;8.75;;;11.60;99.90;;;;;;5005082;28;20222;-76
2022/10/05 04:01:19;;;;;;;17.33;10.02;;;11.50;99.90;;;;;;5007666;28;20293;-77
2022/10/05 04:04:13;;;;;;;17.60;8.95;;;11.50;99.90;;;;;;5008098;28;20256;-77
2022/10/05 04:07:02;;;;;;;16.00;8.80;;;11.50;99.90;;;;;;5018023;28;20229;-75
2022/10/05 04:09:54;;;;;;;14.38;8.93;;;11.50;99.90;;;;;;5008732;28;20304;-76
2022/10/05 04:12:49;;;;;;;15.98;8.23;;;11.40;99.90;;;;;;5005283;28;20237;-75
2022/10/05 04:15:44;;;;;;;15.45;9.00;;;11.50;99.90;;;;;;5014756;28;20245;-76
2022/10/05 04:18:37;;;;;;;15.77;9.00;;;11.60;99.90;;;;;;5016079;28;20226;-76
2022/10/05 04:21:32;;;;;;;15.27;8.52;;;11.60;99.90;;;;;;5012533;28;20304;-76
2022/10/05 04:24:26;;;;;;;14.48;8.85;;;11.60;99.90;;;;;;5027565;28;20826;-76
2022/10/05 04:27:18;;;;;;;16.27;9.00;;;11.60;99.90;;;;;;5009028;28;20724;-76
2022/10/05 04:30:13;;;;;;;18.42;9.40;;;11.40;99.90;;;;;;5030586;28;20240;-76
2022/10/05 04:33:02;;;;;;;14.30;8.88;;;11.50;99.90;;;;;;5003592;28;20229;-75
2022/10/05 04:36:17;;;;;;;15.02;8.43;;;11.50;99.90;;;;;;5000683;28;20228;-76
2022/10/05 04:39:18;;;;;;;20.35;8.65;;;11.40;99.90;;;;;;4999850;28;20233;-76
2022/10/05 04:42:13;;;;;;;18.30;9.13;;;11.40;99.90;;;;;;4997771;28;20275;-76
2022/10/05 04:45:14;;;;;;;18.17;8.40;;;11.40;99.90;;;;;;4997261;28;20229;-76
2022/10/05 04:48:40;;;;;;;16.20;8.90;;;11.40;99.90;;;;;;5015885;28;21391;-76
2022/10/05 04:51:37;;;;;;;20.13;9.40;;;11.40;99.90;;;;;;5017485;28;20221;-76
2022/10/05 04:54:44;;;;;;;16.27;9.57;;;11.40;99.90;;;;;;5005692;28;20218;-76
2022/10/05 04:57:41;;;;;;;15.55;8.93;;;11.40;99.90;;;;;;5004041;28;20217;-76
2022/10/05 05:00:43;;;;;;;21.98;8.85;;;11.30;99.90;;;;;;5011840;28;20218;-77
2022/10/05 05:03:45;;;;;;;16.27;8.80;;;11.30;99.90;;;;;;5001564;28;20233;-77
2022/10/05 05:06:42;;;;;;;15.60;9.15;;;11.30;99.90;;;;;;5013277;28;20390;-76
2022/10/05 05:10:02;;;;;;;16.58;8.85;;;11.30;99.90;;;;;;5009252;28;20222;-77
2022/10/05 05:13:04;;;;;;;18.17;9.25;;;11.30;99.90;;;;;;5003476;28;20225;-77
2022/10/05 05:15:59;;;;;;;16.90;8.82;;;11.30;99.90;;;;;;5031421;28;20217;-77
2022/10/05 05:19:06;;;;;;;16.65;8.27;;;11.30;99.90;;;;;;5004786;28;20225;-76
2022/10/05 05:22:02;;;;;;;16.20;9.38;;;11.40;99.90;;;;;;5018890;28;20218;-77
2022/10/05 05:25:12;;;;;;;15.20;9.30;;;11.40;99.90;;;;;;5026757;28;20599;-77
2022/10/05 05:28:15;;;;;;;14.38;9.40;;;11.50;99.90;;;;;;5002988;28;20232;-76
2022/10/05 05:31:12;;;;;;;15.18;8.65;;;11.50;99.90;;;;;;5018606;28;20292;-82
2022/10/05 05:34:10;;;;;;;18.30;9.15;;;11.50;99.90;;;;;;5015744;28;20702;-81
2022/10/05 05:37:06;;;;;;;19.63;9.23;;;11.50;99.90;;;;;;5011306;28;20776;-82
2022/10/05 05:40:03;;;;;;;16.80;9.18;;;11.50;99.90;;;;;;4999159;28;20276;-80
2022/10/05 05:42:59;;;;;;;15.93;9.35;;;11.60;99.90;;;;;;5004489;28;20222;-81
2022/10/05 05:45:57;;;;;;;20.67;8.98;;;11.60;99.90;;;;;;5014079;28;20703;-82
2022/10/05 05:48:47;;;;;;;19.15;9.57;;;11.60;99.90;;;;;;5013434;28;20225;-81
2022/10/05 05:51:41;;;;;;;19.50;9.40;;;11.60;99.90;;;;;;5026305;28;20225;-81
2022/10/05 05:54:35;;;;;;;18.60;9.13;;;11.60;99.90;;;;;;5012090;28;20869;-82
2022/10/05 05:57:29;;;;;;;16.20;9.82;;;11.70;99.90;;;;;;5003891;28;20237;-82
2022/10/05 06:00:23;;;;;;;15.75;9.52;;;11.70;99.90;;;;;;5023834;28;20843;-81
2022/10/05 06:03:22;;;;;;;18.15;9.25;;;11.80;99.90;;;;;;5025960;28;20224;-81
2022/10/05 06:06:15;;;;;;;19.48;9.82;;;11.80;99.90;;;;;;5002831;28;20210;-76
2022/10/05 06:09:18;;;;;;;18.75;9.27;;;11.90;99.90;;;;;;4997687;28;20229;-76
2022/10/05 06:12:24;;;;;;;15.73;9.25;;;11.90;99.90;;;;;;4990799;28;20221;-77
2022/10/05 06:15:24;;;;;;;17.13;9.07;;;11.90;99.90;;;;;;5012587;28;20221;-76
2022/10/05 06:18:16;;;;;;;15.93;9.57;;;12.00;99.90;;;;;;5025657;28;20225;-76
2022/10/05 06:21:15;;;;;;;17.05;10.10;;;12.00;99.90;;;;;;5006147;28;20230;-76
2022/10/05 06:24:12;;;;;;;20.45;9.70;;;12.00;99.90;;;;;;5001926;28;20226;-75
2022/10/05 06:27:36;;;;;;;14.63;9.32;;;12.00;99.90;;;;;;5006543;28;20225;-76
2022/10/05 06:30:36;;;;;;;17.88;9.90;;;12.10;99.90;;;;;;4967234;28;20305;-78
2022/10/05 06:33:42;;;;;;;16.48;9.57;;;12.10;99.90;;;;;;5012796;28;20222;-76
2022/10/05 06:36:40;;;;;;;17.98;9.55;;;12.20;99.90;;;;;;5009643;28;20230;-77
2022/10/05 06:39:47;;;;;;;18.30;9.30;;;12.30;99.90;;;;;;5024309;28;20225;-78
2022/10/05 06:42:51;;;;;;;15.20;9.02;;;12.30;99.90;;;;;;5001403;28;20276;-77
2022/10/05 06:46:05;;;;;;;14.50;8.55;;;12.30;99.90;;;;;;5012061;28;20218;-78
2022/10/05 06:49:21;;;;;;;16.75;9.40;;;12.40;99.90;;;;;;5011315;28;20586;-77
2022/10/05 06:52:37;;;;;;;18.55;9.15;;;12.60;99.90;;;;;;5014717;28;20636;-78
2022/10/05 06:55:38;;;;;;;16.13;9.10;;;12.50;99.90;;;;;;5011209;28;20592;-79
2022/10/05 06:58:51;;;;;;;14.85;8.35;;;12.50;99.90;;;;;;5000831;28;20217;-80
2022/10/05 07:01:52;;;;;;;19.48;9.13;;;12.60;99.90;;;;;;5011165;28;20588;-83
2022/10/05 07:05:03;;;;;;;16.05;8.88;;;12.60;99.90;;;;;;5008132;28;20236;-81
2022/10/05 07:07:56;;;;;;;15.45;8.75;;;12.60;99.90;;;;;;5027004;28;20263;-80
2022/10/05 07:10:59;;;;;;;14.95;8.10;;;12.60;99.90;;;;;;5034590;28;20715;-81
2022/10/05 07:14:08;;;;;;;15.63;8.77;;;12.70;99.90;;;;;;5016375;28;20764;-79
2022/10/05 07:17:16;;;;;;;15.05;9.10;;;12.70;99.90;;;;;;5005756;28;20219;-85
2022/10/05 07:20:17;;;;;;;16.65;8.82;;;12.70;99.90;;;;;;5009866;28;20228;-79
2022/10/05 07:23:26;;;;;;;16.33;8.45;;;12.80;99.90;;;;;;5018171;28;20233;-78
2022/10/05 07:26:20;;;;;;;17.50;8.80;;;12.90;99.90;;;;;;5004218;28;20426;-78
2022/10/05 07:29:28;;;;;;;17.75;8.70;;;13.00;99.90;;;;;;5009859;28;20356;-82
2022/10/05 07:32:32;;;;;;;18.80;8.32;;;13.10;99.90;;;;;;5007046;28;20290;-84
2022/10/05 07:38:43;;;;;;;14.88;7.50;;;13.30;99.90;;;;;;5021931;28;20230;-83
2022/10/05 07:41:40;;;;;;;13.13;6.95;;;13.40;99.90;;;;;;5017391;28;20589;-84
2022/10/05 07:44:35;;;;;;;13.40;7.63;;;13.60;99.90;;;;;;5016100;28;20336;-82
2022/10/05 07:47:35;;;;;;;15.10;8.35;;;13.70;99.90;;;;;;5029212;28;20225;-83
2022/10/05 07:50:28;;;;;;;13.98;8.05;;;13.80;99.90;;;;;;5015048;28;20222;-85
2022/10/05 07:53:23;;;;;;;17.38;7.40;;;13.80;99.90;;;;;;5018092;28;20218;-83
2022/10/05 07:56:20;;;;;;;13.30;7.07;;;13.80;99.90;;;;;;5017959;28;20291;-85
2022/10/05 07:59:16;;;;;;;15.77;7.65;;;13.90;99.90;;;;;;5012636;28;20213;-86
2022/10/05 08:02:15;;;;;;;13.73;6.75;;;14.00;99.90;;;;;;5031686;28;20240;-84
2022/10/05 08:05:13;;;;;;;10.45;6.63;;;13.90;99.90;;;;;;5023193;28;20217;-84
2022/10/05 08:08:10;;;;;;;12.43;6.25;;;14.00;99.90;;;;;;5012935;28;20233;-91
2022/10/05 08:11:13;;;;;;;11.90;6.85;;;14.00;99.90;;;;;;5028563;28;20225;-92
2022/10/05 08:14:09;;;;;;;11.73;6.75;;;14.60;99.90;;;;;;5044905;28;20245;-92
2022/10/05 08:17:02;;;;;;;10.45;6.38;;;14.70;99.90;;;;;;5052769;28;20227;-92
2022/10/05 08:19:57;;;;;;;9.38;5.97;;;14.60;99.90;;;;;;5022030;28;20221;-95
2022/10/05 08:22:53;;;;;;;10.00;6.10;;;14.50;99.90;;;;;;5021992;28;20225;-85
2022/10/05 08:25:50;;;;;;;13.45;6.38;;;14.60;99.90;;;;;;5000305;28;20237;-84
2022/10/05 08:28:45;;;;;;;8.55;5.65;;;14.90;99.90;;;;;;5018899;28;20700;-85
2022/10/05 08:31:37;;;;;;;9.63;5.95;;;15.80;99.90;;;;;;5008103;28;20214;-84
2022/10/05 08:34:30;;;;;;;11.05;5.80;;;16.20;99.90;;;;;;5015768;28;20225;-83
2022/10/05 08:37:22;;;;;;;13.48;5.70;;;15.90;99.90;;;;;;5011055;28;20325;-85
2022/10/05 08:40:40;;;;;;;10.75;5.55;;;15.60;99.90;;;;;;5018865;28;20272;-86
2022/10/05 08:43:50;;;;;;;10.55;5.05;;;15.50;99.90;;;;;;4999151;28;20597;-84
2022/10/05 08:47:07;;;;;;;11.73;5.38;;;15.50;99.90;;;;;;5018213;28;20257;-84
2022/10/05 08:50:11;;;;;;;11.68;5.35;;;15.50;99.90;;;;;;5014592;28;20219;-84
2022/10/05 08:53:18;;;;;;;10.35;5.57;;;15.50;99.90;;;;;;5023736;28;20225;-84
2022/10/05 08:56:39;;;;;;;10.60;5.55;;;15.50;99.90;;;;;;5017392;28;20225;-84
2022/10/05 08:59:57;;;;;;;10.88;5.03;;;15.50;99.90;;;;;;5017320;28;20320;-82
2022/10/05 09:03:14;;;;;;;11.18;5.40;;;15.50;99.90;;;;;;5004886;28;20313;-84
2022/10/05 09:06:23;;;;;;;11.98;5.60;;;15.50;99.90;;;;;;5015619;28;20712;-86
2022/10/05 09:09:31;;;;;;;11.73;5.55;;;15.50;99.90;;;;;;5011276;28;20414;-79
2022/10/05 09:12:46;;;;;;;10.95;5.72;;;15.60;99.90;;;;;;5016601;28;20316;-84
2022/10/05 09:15:56;;;;;;;9.10;5.68;;;15.70;99.90;;;;;;5017448;28;20284;-73
2022/10/05 09:19:28;;;;;;;11.65;5.70;;;15.80;99.90;;;;;;5013820;28;20268;-75
2022/10/05 09:22:29;;;;;;;10.43;5.10;;;15.90;99.90;;;;;;4999460;28;20244;-77
2022/10/05 09:25:23;;;;;;;11.25;5.68;;;15.90;99.90;;;;;;5013285;28;20264;-75
2022/10/05 09:28:24;;;;;;;8.18;4.72;;;16.00;99.90;;;;;;5003732;28;20210;-72
2022/10/05 09:31:35;;;;;;;9.73;5.35;;;16.10;99.90;;;;;;5000516;28;20253;-74
2022/10/05 09:34:55;;;;;;;11.88;6.18;;;16.20;99.90;;;;;;5016259;28;20228;-74
2022/10/05 09:38:14;;;;;;;15.05;5.68;;;16.20;99.90;;;;;;5032761;28;20307;-75
2022/10/05 09:41:38;;;;;;;10.60;5.63;;;16.20;99.90;;;;;;5018053;28;20697;-75
2022/10/05 09:45:09;;;;;;;10.95;6.13;;;16.20;99.90;;;;;;5012981;28;20225;-74
2022/10/05 09:48:20;;;;;;;13.68;5.32;;;16.20;99.90;;;;;;5003554;28;20221;-75
2022/10/05 09:51:47;;;;;;;8.45;5.20;;;16.20;99.90;;;;;;5013639;28;20217;-75
2022/10/05 09:55:01;;;;;;;9.45;5.20;;;16.20;99.90;;;;;;5012557;28;20222;-75
2022/10/05 09:58:27;;;;;;;12.40;5.35;;;16.30;99.90;;;;;;5006508;28;20228;-75
2022/10/05 10:01:41;;;;;;;10.80;5.50;;;16.40;99.90;;;;;;5003256;28;20221;-75
2022/10/05 10:05:06;;;;;;;10.13;5.30;;;16.30;99.90;;;;;;5015132;28;20315;-75
2022/10/05 10:08:19;;;;;;;10.75;5.55;;;16.30;99.90;;;;;;5009620;28;20249;-76
2022/10/05 10:11:30;;;;;;;14.57;5.55;;;16.30;99.90;;;;;;5017549;28;20221;-75
2022/10/05 10:14:41;;;;;;;13.05;5.40;;;16.20;99.90;;;;;;5012698;28;20229;-75
2022/10/05 10:17:52;;;;;;;8.68;5.22;;;16.20;99.90;;;;;;5012331;28;20374;-75
2022/10/05 10:21:03;;;;;;;7.07;4.90;;;16.30;99.90;;;;;;5013290;28;20241;-75
2022/10/05 10:24:03;;;;;;;7.70;4.55;;;16.30;99.90;;;;;;5017872;28;20240;-75
2022/10/05 10:27:16;;;;;;;7.78;4.75;;;16.40;99.90;;;;;;5014835;28;20229;-75
2022/10/05 10:30:37;;;;;;;8.30;4.38;;;16.50;99.90;;;;;;5015963;28;20218;-75
2022/10/05 10:33:49;;;;;;;7.22;4.45;;;16.70;99.90;;;;;;5020342;28;20732;-75
2022/10/05 10:36:58;;;;;;;5.65;4.45;;;17.10;99.90;;;;;;5008615;28;20232;-75
2022/10/05 10:40:08;;;;;;;5.13;3.70;;;17.30;99.90;;;;;;5010103;28;20709;-75
2022/10/05 10:43:28;;;;;;;5.68;4.00;;;17.40;99.90;;;;;;5014333;28;20229;-75
2022/10/05 10:46:31;;;;;;;7.45;4.22;;;17.50;99.90;;;;;;5018246;28;20237;-74
2022/10/05 10:49:38;;;;;;;8.80;3.97;;;17.40;99.90;;;;;;5031926;28;20268;-75
2022/10/05 10:52:47;;;;;;;9.98;4.57;;;17.30;99.90;;;;;;5018145;28;20668;-75
2022/10/05 10:55:46;;;;;;;6.05;3.50;;;17.20;99.90;;;;;;5012381;28;20674;-75
2022/10/05 10:59:04;;;;;;;7.68;4.32;;;17.20;99.90;;;;;;5022200;28;20221;-75
2022/10/05 11:02:23;;;;;;;7.32;3.78;;;17.30;99.90;;;;;;5018279;28;20225;-75
2022/10/05 11:05:30;;;;;;;5.60;4.03;;;17.30;99.90;;;;;;5025230;28;20225;-75
2022/10/05 11:09:00;;;;;;;11.45;3.72;;;17.50;99.90;;;;;;5021176;28;20271;-76
2022/10/05 11:12:31;;;;;;;11.30;4.53;;;17.70;99.90;;;;;;5008688;28;20304;-75
2022/10/05 11:15:51;;;;;;;12.65;4.20;;;17.90;99.90;;;;;;5019658;28;20970;-74
2022/10/05 11:18:53;;;;;;;5.90;4.03;;;17.80;99.90;;;;;;5018024;28;20222;-75
2022/10/05 11:21:57;;;;;;;7.93;3.90;;;17.80;99.90;;;;;;5000039;28;20373;-73
2022/10/05 11:25:02;;;;;;;5.45;3.60;;;17.90;99.90;;;;;;5003011;28;20225;-73
2022/10/05 11:28:04;;;;;;;5.22;3.75;;;17.80;99.90;;;;;;5018929;28;20217;-73
2022/10/05 11:31:25;;;;;;;6.00;4.32;;;17.80;99.90;;;;;;5015385;28;20820;-73
2022/10/05 11:34:58;;;;;;;9.02;3.97;;;17.70;99.90;;;;;;5020375;28;20222;-72
2022/10/05 11:38:12;;;;;;;7.95;4.18;;;17.70;99.90;;;;;;4991089;28;20697;-73
2022/10/05 11:41:23;;;;;;;4.18;3.55;;;17.80;99.90;;;;;;5016721;28;20308;-74
2022/10/05 11:44:53;;;;;;;7.05;3.90;;;17.70;99.90;;;;;;5014188;28;20217;-73
2022/10/05 11:48:06;;;;;;;6.72;3.38;;;17.70;99.90;;;;;;5015407;28;20249;-73
2022/10/05 11:51:15;;;;;;;9.50;3.70;;;17.80;99.90;;;;;;5015292;28;20222;-73
2022/10/05 11:54:24;;;;;;;6.20;3.10;;;17.70;99.90;;;;;;5016611;28;20218;-73
2022/10/05 11:57:18;;;;;;;4.95;3.42;;;17.70;99.90;;;;;;5015595;28;20214;-72
2022/10/05 12:00:15;;;;;;;6.90;3.45;;;17.70;99.90;;;;;;5016767;28;20273;-74
2022/10/05 12:03:26;;;;;;;6.63;3.80;;;17.80;99.90;;;;;;5015667;28;20225;-73
2022/10/05 12:06:35;;;;;;;5.47;3.30;;;17.80;99.90;;;;;;5011510;28;20230;-72
2022/10/05 12:13:07;;;;;;;9.10;3.85;;;17.70;99.90;;;;;;5004409;28;20230;-73
2022/10/05 12:16:02;;;;;;;6.97;4.25;;;17.70;99.90;;;;;;5016690;28;20280;-73
2022/10/05 12:19:00;;;;;;;10.07;4.05;;;17.70;99.90;;;;;;5012685;28;20634;-73
2022/10/05 12:21:54;;;;;;;7.43;4.13;;;17.80;99.90;;;;;;5012546;28;20226;-73
2022/10/05 12:25:00;;;;;;;10.27;4.20;;;17.90;99.90;;;;;;5018933;28;20715;-74
2022/10/05 12:27:53;;;;;;;9.68;4.53;;;17.90;99.90;;;;;;5009511;28;20221;-73
2022/10/05 12:31:20;;;;;;;6.95;4.47;;;18.00;99.90;;;;;;5016497;28;20309;-73
2022/10/05 12:34:19;;;;;;;8.23;4.30;;;18.00;99.90;;;;;;5011216;28;20222;-73
2022/10/05 12:37:17;;;;;;;10.48;5.32;;;17.90;99.90;;;;;;5013680;28;20222;-73
2022/10/05 12:40:18;;;;;;;7.53;4.60;;;18.00;99.90;;;;;;5013594;28;20285;-73
2022/10/05 12:43:17;;;;;;;8.02;4.70;;;17.90;99.90;;;;;;5018433;28;20221;-73
2022/10/05 12:46:16;;;;;;;15.07;4.75;;;17.80;99.90;;;;;;5014611;28;20287;-73
2022/10/05 12:49:41;;;;;;;7.13;4.60;;;17.80;99.90;;;;;;5004417;28;20221;-74
2022/10/05 12:52:54;;;;;;;7.80;5.00;;;17.90;99.90;;;;;;5012551;28;20215;-73
2022/10/05 12:55:53;;;;;;;7.55;4.45;;;17.80;99.90;;;;;;5017449;28;20225;-73
2022/10/05 12:58:51;;;;;;;10.48;4.95;;;17.90;99.90;;;;;;5018910;28;20709;-73
2022/10/05 13:01:46;;;;;;;8.48;4.70;;;17.90;99.90;;;;;;5010843;28;20279;-74
2022/10/05 13:04:46;;;;;;;10.73;5.30;;;18.00;99.90;;;;;;5014891;28;20225;-73
2022/10/05 13:07:48;;;;;;;10.13;5.43;;;18.00;99.90;;;;;;5013561;28;20253;-73
2022/10/05 13:10:42;;;;;;;10.80;5.20;;;18.00;99.90;;;;;;5015257;28;20221;-73
2022/10/05 13:13:41;;;;;;;11.20;5.20;;;18.00;99.90;;;;;;5014909;28;20218;-74
2022/10/05 13:16:40;;;;;;;10.52;4.35;;;17.90;99.90;;;;;;5008049;28;20231;-73
2022/10/05 13:19:39;;;;;;;8.85;4.85;;;17.90;99.90;;;;;;5011556;28;22128;-74
2022/10/05 13:22:35;;;;;;;8.70;5.10;;;17.90;99.90;;;;;;5016342;28;20233;-74
2022/10/05 13:25:29;;;;;;;8.85;4.93;;;17.80;99.90;;;;;;5004977;28;20238;-74
2022/10/05 13:28:24;;;;;;;7.53;4.40;;;17.80;99.90;;;;;;5018396;28;20228;-74
2022/10/05 13:31:18;;;;;;;10.82;5.50;;;17.80;99.90;;;;;;5005020;28;20256;-73
2022/10/05 13:34:17;;;;;;;12.27;5.20;;;17.80;99.90;;;;;;5015242;28;20222;-73
2022/10/05 13:37:12;;;;;;;9.88;5.15;;;17.70;99.90;;;;;;5007132;28;20459;-74
2022/10/05 13:40:17;;;;;;;8.45;4.82;;;17.70;99.90;;;;;;5013196;28;20218;-73
2022/10/05 13:43:16;;;;;;;7.07;4.65;;;17.70;99.90;;;;;;5016774;28;20233;-73
2022/10/05 13:46:11;;;;;;;7.72;4.80;;;17.70;99.90;;;;;;5001038;28;20225;-73
2022/10/05 13:49:14;;;;;;;7.72;4.88;;;17.70;99.90;;;;;;5012922;28;20233;-74
2022/10/05 13:52:15;;;;;;;8.95;4.82;;;17.60;99.90;;;;;;5032861;28;20267;-74
2022/10/05 13:55:16;;;;;;;9.32;5.28;;;17.60;99.90;;;;;;5015066;28;20234;-74
2022/10/05 13:58:12;;;;;;;12.68;5.00;;;17.60;99.90;;;;;;5015375;28;20712;-73
2022/10/05 14:01:07;;;;;;;8.55;4.82;;;17.50;99.90;;;;;;5014905;28;20230;-73
2022/10/05 14:04:16;;;;;;;10.10;5.70;;;17.50;99.90;;;;;;5016633;28;20236;-73
2022/10/05 14:07:24;;;;;;;11.38;5.10;;;17.50;99.90;;;;;;5017882;28;20283;-73
2022/10/05 14:10:28;;;;;;;8.38;5.75;;;17.50;99.90;;;;;;5008567;28;20221;-73
2022/10/05 14:13:31;;;;;;;14.80;5.95;;;17.40;99.90;;;;;;5013428;28;20291;-73
2022/10/05 14:16:22;;;;;;;10.02;5.32;;;17.40;99.90;;;;;;5014037;28;20246;-73
2022/10/05 14:19:21;;;;;;;14.40;5.75;;;17.40;99.90;;;;;;4994543;28;20222;-73
2022/10/05 14:22:13;;;;;;;10.23;5.05;;;17.40;99.90;;;;;;5014482;28;20222;-73
2022/10/05 14:25:17;;;;;;;9.55;5.00;;;17.40;99.90;;;;;;5022315;28;20284;-73
2022/10/05 14:28:27;;;;;;;10.27;5.00;;;17.30;99.90;;;;;;5022669;28;21011;-73
2022/10/05 14:31:28;;;;;;;17.50;5.90;;;17.30;99.90;;;;;;5018325;28;20218;-73
2022/10/05 14:34:31;;;;;;;7.18;4.82;;;17.30;99.90;;;;;;5020514;28;20236;-73
2022/10/05 14:37:21;;;;;;;8.20;4.93;;;17.30;99.90;;;;;;5019215;28;20233;-73
2022/10/05 14:40:30;;;;;;;8.48;4.97;;;17.20;99.90;;;;;;5015623;28;20249;-73
2022/10/05 14:43:20;;;;;;;7.57;5.22;;;17.20;99.90;;;;;;5006491;28;20225;-73
2022/10/05 14:46:22;;;;;;;12.88;5.78;;;17.20;99.90;;;;;;5032165;28;20260;-73
2022/10/05 14:49:21;;;;;;;8.10;4.90;;;17.20;99.90;;;;;;5016352;28;20217;-73
2022/10/05 14:52:31;;;;;;;11.13;5.00;;;17.20;99.90;;;;;;5006615;28;20256;-74
2022/10/05 14:55:49;;;;;;;7.88;5.38;;;17.20;99.90;;;;;;5019173;28;20217;-73
2022/10/05 14:58:54;;;;;;;11.68;6.38;;;17.10;99.90;;;;;;4999688;28;20228;-73
2022/10/05 15:01:51;;;;;;;9.77;5.43;;;17.10;99.90;;;;;;5014882;28;20561;-73
2022/10/05 15:04:44;;;;;;;11.75;5.78;;;17.10;99.90;;;;;;5015786;28;20237;-73
2022/10/05 15:07:38;;;;;;;8.70;5.30;;;17.10;99.90;;;;;;5017400;28;20230;-73
2022/10/05 15:10:35;;;;;;;7.75;5.00;;;17.10;99.90;;;;;;5020314;28;20977;-74
2022/10/05 15:13:31;;;;;;;13.63;5.70;;;17.00;99.90;;;;;;5017702;28;20218;-74
2022/10/05 15:16:24;;;;;;;9.90;5.40;;;17.00;99.90;;;;;;5032725;28;20218;-73
2022/10/05 15:19:19;;;;;;;9.00;5.28;;;17.00;99.90;;;;;;5022813;28;20258;-74
2022/10/05 15:22:22;;;;;;;13.75;5.38;;;17.00;99.90;;;;;;5020546;28;20774;-74
2022/10/05 15:25:15;;;;;;;13.88;5.53;;;17.00;99.90;;;;;;5007966;28;20214;-74
2022/10/05 15:28:11;;;;;;;13.00;5.60;;;17.00;99.90;;;;;;5017180;28;20253;-77
2022/10/05 15:31:05;;;;;;;10.10;4.95;;;16.90;99.90;;;;;;5019223;28;20309;-74
2022/10/05 15:34:01;;;;;;;9.60;4.85;;;16.90;99.90;;;;;;5017925;28;20301;-74
2022/10/05 15:36:58;;;;;;;9.23;5.10;;;16.90;99.90;;;;;;5009501;28;20331;-74
2022/10/05 15:39:51;;;;;;;9.63;5.07;;;16.90;99.90;;;;;;5005229;28;20275;-73
2022/10/05 15:42:41;;;;;;;10.63;5.55;;;16.90;99.90;;;;;;5018938;28;20797;-74